createdAt,value
2023-05-22T00:01:16.482Z,1.90
2023-05-22T00:03:43.772Z,1.55
2023-05-22T00:06:11.949Z,1.90
2023-05-22T00:08:39.166Z,1.75
2023-05-22T00:11:06.455Z,1.40
2023-05-22T00:13:34.498Z,1.58
2023-05-22T00:16:01.760Z,1.58
2023-05-22T00:18:28.918Z,1.63
2023-05-22T00:20:56.408Z,1.73
2023-05-22T00:23:24.375Z,1.85
2023-05-22T00:25:51.999Z,1.60
2023-05-22T00:28:19.172Z,1.60
2023-05-22T00:30:47.523Z,1.63
2023-05-22T00:33:14.713Z,1.50
2023-05-22T00:35:41.868Z,1.35
2023-05-22T00:38:09.016Z,1.58
2023-05-22T00:40:36.588Z,1.50
2023-05-22T00:43:08.815Z,1.60
2023-05-22T00:45:36.383Z,1.67
2023-05-22T00:48:03.622Z,1.63
2023-05-22T00:50:30.829Z,1.52
2023-05-22T00:52:58.045Z,1.95
2023-05-22T00:55:25.322Z,1.50
2023-05-22T00:57:52.978Z,1.30
2023-05-22T01:00:20.548Z,1.48
2023-05-22T01:02:47.998Z,1.52
2023-05-22T01:05:18.220Z,1.95
2023-05-22T01:07:46.597Z,1.50
2023-05-22T01:10:13.890Z,1.50
2023-05-22T01:12:53.219Z,1.60
2023-05-22T01:15:36.232Z,1.67
2023-05-22T01:18:11.140Z,1.40
2023-05-22T01:20:44.134Z,1.58
2023-05-22T01:23:23.537Z,1.40
2023-05-22T01:26:03.602Z,1.63
2023-05-22T01:28:33.686Z,1.50
2023-05-22T01:31:01.181Z,1.70
2023-05-22T01:33:30.603Z,1.33
2023-05-22T01:35:58.553Z,1.42
2023-05-22T01:38:25.698Z,1.50
2023-05-22T01:40:53.342Z,1.40
2023-05-22T01:43:23.972Z,1.50
2023-05-22T01:45:51.525Z,1.42
2023-05-22T01:48:18.756Z,1.23
2023-05-22T01:50:46.452Z,1.33
2023-05-22T01:53:20.642Z,1.67
2023-05-22T01:55:58.670Z,1.60
2023-05-22T01:58:26.329Z,1.60
2023-05-22T02:00:57.456Z,1.40
2023-05-22T02:03:28.258Z,1.38
2023-05-22T02:05:56.474Z,1.60
2023-05-22T02:08:25.022Z,1.20
2023-05-22T02:10:53.031Z,1.33
2023-05-22T02:13:20.436Z,1.48
2023-05-22T02:15:49.134Z,1.60
2023-05-22T02:23:11.019Z,1.60
2023-05-22T02:25:38.228Z,1.48
2023-05-22T02:28:05.471Z,1.42
2023-05-22T02:30:32.645Z,1.60
2023-05-22T02:33:00.314Z,1.95
2023-05-22T02:35:27.581Z,1.40
2023-05-22T02:37:54.756Z,1.60
2023-05-22T02:40:21.908Z,1.40
2023-05-22T02:42:49.078Z,1.67
2023-05-22T02:45:16.244Z,1.50
2023-05-22T02:47:43.608Z,1.40
2023-05-22T02:50:10.903Z,1.45
2023-05-22T02:52:39.468Z,1.67
2023-05-22T02:55:08.162Z,1.40
2023-05-22T02:57:35.979Z,1.23
2023-05-22T03:00:03.919Z,1.48
2023-05-22T03:02:32.556Z,1.40
2023-05-22T03:04:59.890Z,1.65
2023-05-22T03:07:27.158Z,1.20
2023-05-22T03:09:54.375Z,1.40
2023-05-22T03:12:21.619Z,1.63
2023-05-22T03:14:48.761Z,1.58
2023-05-22T03:17:15.934Z,1.50
2023-05-22T03:19:43.080Z,1.77
2023-05-22T03:22:10.258Z,1.30
2023-05-22T03:24:37.508Z,1.20
2023-05-22T03:27:04.941Z,1.52
2023-05-22T03:29:32.186Z,1.50
2023-05-22T03:31:59.949Z,1.60
2023-05-22T03:34:27.439Z,1.30
2023-05-22T03:36:54.726Z,1.30
2023-05-22T03:39:21.897Z,1.60
2023-05-22T03:41:49.011Z,1.42
2023-05-22T03:44:16.145Z,3.45
2023-05-22T03:46:43.594Z,2.72
2023-05-22T03:49:10.857Z,1.90
2023-05-22T03:51:38.028Z,2.13
2023-05-22T03:54:05.423Z,1.48
2023-05-22T03:56:32.762Z,2.13
2023-05-22T03:58:59.948Z,1.95
2023-05-22T04:01:27.168Z,1.63
2023-05-22T04:03:54.382Z,1.80
2023-05-22T04:06:21.843Z,1.75
2023-05-22T04:08:49.719Z,1.80
2023-05-22T04:11:16.997Z,1.75
2023-05-22T04:13:44.183Z,2.42
2023-05-22T04:16:11.561Z,1.92
2023-05-22T04:18:38.840Z,2.10
2023-05-22T04:21:08.162Z,2.78
2023-05-22T04:23:35.336Z,2.55
2023-05-22T04:26:02.876Z,2.42
2023-05-22T04:28:30.377Z,3.13
2023-05-22T04:30:58.042Z,2.67
2023-05-22T04:33:25.245Z,2.42
2023-05-22T04:35:52.563Z,2.10
2023-05-22T04:38:19.735Z,2.90
2023-05-22T04:40:47.740Z,2.58
2023-05-22T04:43:14.963Z,2.20
2023-05-22T04:45:42.979Z,2.22
2023-05-22T04:48:11.988Z,2.30
2023-05-22T04:50:39.376Z,3.10
2023-05-22T04:53:06.742Z,1.98
2023-05-22T04:55:34.215Z,2.42
2023-05-22T04:58:01.703Z,2.33
2023-05-22T05:00:29.044Z,2.30
2023-05-22T05:02:57.537Z,2.17
2023-05-22T05:05:24.995Z,2.13
2023-05-22T05:07:53.196Z,2.15
2023-05-22T05:10:20.419Z,2.25
2023-05-22T05:12:47.612Z,2.40
2023-05-22T05:15:14.837Z,1.80
2023-05-22T05:17:42.280Z,1.88
2023-05-22T05:20:10.551Z,2.10
2023-05-22T05:22:38.145Z,1.80
2023-05-22T05:25:05.631Z,2.20
2023-05-22T05:27:32.787Z,2.38
2023-05-22T05:30:00.294Z,1.70
2023-05-22T05:32:27.727Z,1.77
2023-05-22T05:34:54.864Z,2.15
2023-05-22T05:37:22.140Z,1.85
2023-05-22T05:39:49.300Z,2.10
2023-05-22T05:42:17.846Z,2.17
2023-05-22T05:44:45.123Z,2.25
2023-05-22T05:47:12.287Z,2.20
2023-05-22T05:49:39.544Z,1.70
2023-05-22T05:52:08.021Z,1.92
2023-05-22T05:54:35.155Z,1.70
2023-05-22T05:57:02.292Z,1.88
2023-05-22T05:59:31.893Z,1.75
2023-05-22T06:01:59.122Z,2.08
2023-05-22T06:04:28.183Z,2.00
2023-05-22T06:06:55.572Z,2.08
2023-05-22T06:09:22.755Z,2.35
2023-05-22T06:11:50.061Z,2.38
2023-05-22T06:14:17.235Z,2.00
2023-05-22T06:16:45.794Z,2.20
2023-05-22T06:19:13.147Z,1.90
2023-05-22T06:21:40.375Z,1.90
2023-05-22T06:24:07.769Z,1.70
2023-05-22T06:26:35.023Z,1.60
2023-05-22T06:29:02.269Z,2.47
2023-05-22T06:31:29.414Z,1.67
2023-05-22T06:33:56.736Z,1.92
2023-05-22T06:36:23.986Z,2.00
2023-05-22T06:38:51.875Z,2.00
2023-05-22T06:41:19.044Z,1.83
2023-05-22T06:43:46.179Z,1.75
2023-05-22T06:46:13.396Z,1.90
2023-05-22T06:48:40.754Z,2.03
2023-05-22T06:51:10.925Z,1.98
2023-05-22T06:53:38.099Z,1.83
2023-05-22T06:56:06.109Z,1.70
2023-05-22T06:58:34.516Z,1.88
2023-05-22T07:01:01.809Z,1.70
2023-05-22T07:03:29.179Z,1.85
2023-05-22T07:05:57.787Z,2.00
2023-05-22T07:08:25.076Z,2.17
2023-05-22T07:10:52.586Z,1.73
2023-05-22T07:13:19.950Z,2.05
2023-05-22T07:15:47.327Z,2.22
2023-05-22T07:18:15.171Z,2.30
2023-05-22T07:20:42.551Z,2.00
2023-05-22T07:23:10.009Z,2.00
2023-05-22T07:25:37.155Z,2.13
2023-05-22T07:28:08.785Z,2.10
2023-05-22T07:30:39.458Z,1.88
2023-05-22T07:33:07.123Z,2.00
2023-05-22T07:35:35.039Z,2.45
2023-05-22T07:38:02.245Z,2.25
2023-05-22T07:40:29.482Z,2.10
2023-05-22T07:42:56.659Z,2.45
2023-05-22T07:45:23.905Z,2.05
2023-05-22T07:47:51.839Z,2.17
2023-05-22T07:50:21.167Z,2.40
2023-05-22T07:52:48.321Z,2.17
2023-05-22T07:55:15.734Z,2.53
2023-05-22T07:57:43.685Z,2.50
2023-05-22T08:00:13.567Z,2.30
2023-05-22T08:02:41.914Z,2.45
2023-05-22T08:05:09.969Z,2.40
2023-05-22T08:07:37.271Z,2.10
2023-05-22T08:10:05.459Z,1.80
2023-05-22T08:12:32.717Z,2.20
2023-05-22T08:15:00.137Z,2.40
2023-05-22T08:17:27.474Z,2.92
2023-05-22T08:19:54.822Z,2.22
2023-05-22T08:22:22.051Z,2.45
2023-05-22T08:24:49.206Z,2.13
2023-05-22T08:27:16.371Z,2.22
2023-05-22T08:29:43.663Z,2.30
2023-05-22T08:32:10.827Z,2.70
2023-05-22T08:34:40.274Z,2.30
2023-05-22T08:37:09.382Z,2.33
2023-05-22T08:39:36.648Z,2.45
2023-05-22T08:42:04.058Z,2.45
2023-05-22T08:44:31.336Z,2.83
2023-05-22T08:47:00.220Z,2.53
2023-05-22T08:49:27.741Z,2.72
2023-05-22T08:51:57.113Z,3.17
2023-05-22T08:54:26.396Z,2.80
2023-05-22T08:56:57.090Z,2.50
2023-05-22T08:59:25.177Z,2.70
2023-05-22T09:01:53.471Z,2.33
2023-05-22T09:04:23.854Z,2.50
2023-05-22T09:06:52.693Z,3.05
2023-05-22T09:09:19.949Z,2.28
2023-05-22T09:11:47.261Z,2.05
2023-05-22T09:14:16.031Z,2.47
2023-05-22T09:19:10.360Z,2.70
2023-05-22T09:21:38.158Z,2.92
2023-05-22T09:24:08.179Z,2.63
2023-05-22T09:26:35.498Z,2.78
2023-05-22T09:29:03.173Z,2.78
2023-05-22T09:31:30.642Z,2.65
2023-05-22T09:33:59.306Z,2.97
2023-05-22T09:36:33.428Z,2.80
2023-05-22T09:39:01.939Z,2.50
2023-05-22T09:41:32.448Z,2.42
2023-05-22T09:44:01.130Z,2.72
2023-05-22T09:46:29.287Z,2.50
2023-05-22T09:48:56.499Z,2.60
2023-05-22T09:51:23.915Z,2.70
2023-05-22T09:53:52.283Z,2.75
2023-05-22T09:56:34.846Z,2.60
2023-05-22T09:59:09.348Z,2.53
2023-05-22T10:01:37.413Z,2.65
2023-05-22T10:04:05.199Z,2.50
2023-05-22T10:06:34.284Z,2.60
2023-05-22T10:09:06.291Z,3.00
2023-05-22T10:11:34.772Z,2.78
2023-05-22T10:14:03.366Z,2.67
2023-05-22T10:16:31.276Z,3.25
2023-05-22T10:18:58.931Z,2.65
2023-05-22T10:21:26.417Z,2.70
2023-05-22T10:23:54.220Z,3.00
2023-05-22T10:26:22.328Z,2.90
2023-05-22T10:28:53.617Z,2.78
2023-05-22T10:31:39.420Z,2.78
2023-05-22T10:34:11.067Z,2.88
2023-05-22T10:36:45.027Z,2.72
2023-05-22T10:39:38.827Z,3.00
2023-05-22T10:42:06.075Z,3.05
2023-05-22T10:44:33.955Z,2.92
2023-05-22T10:47:10.367Z,2.83
2023-05-22T10:49:39.110Z,3.22
2023-05-22T10:52:08.811Z,2.88
2023-05-22T10:54:55.347Z,2.85
2023-05-22T10:57:24.831Z,3.00
2023-05-22T10:59:52.236Z,2.90
2023-05-22T11:02:23.133Z,3.28
2023-05-22T11:04:50.839Z,3.30
2023-05-22T11:07:18.350Z,2.80
2023-05-22T11:09:48.903Z,2.90
2023-05-22T11:12:17.885Z,3.17
2023-05-22T11:14:51.173Z,2.70
2023-05-22T11:17:19.791Z,3.40
2023-05-22T11:19:59.054Z,2.70
2023-05-22T11:22:33.398Z,2.92
2023-05-22T11:25:00.890Z,3.20
2023-05-22T11:27:28.218Z,3.20
2023-05-22T11:29:55.901Z,3.72
2023-05-22T11:32:24.280Z,3.10
2023-05-22T11:34:51.538Z,3.15
2023-05-22T11:37:21.785Z,2.65
2023-05-22T11:39:58.590Z,3.40
2023-05-22T11:42:26.092Z,3.72
2023-05-22T11:44:53.279Z,3.00
2023-05-22T11:47:20.498Z,3.45
2023-05-22T11:49:47.831Z,3.15
2023-05-22T11:52:17.321Z,3.15
2023-05-22T11:54:47.984Z,3.20
2023-05-22T11:57:15.663Z,2.88
2023-05-22T11:59:48.917Z,3.10
2023-05-22T12:02:19.742Z,3.28
2023-05-22T12:04:47.113Z,3.10
2023-05-22T12:07:14.945Z,2.67
2023-05-22T12:09:43.151Z,3.50
2023-05-22T12:12:13.371Z,3.30
2023-05-22T12:14:44.276Z,3.10
2023-05-22T12:17:13.483Z,2.97
2023-05-22T12:19:41.268Z,3.38
2023-05-22T12:22:09.508Z,3.10
2023-05-22T12:24:40.981Z,2.97
2023-05-22T12:27:11.491Z,2.78
2023-05-22T12:29:41.929Z,2.80
2023-05-22T12:32:13.141Z,3.03
2023-05-22T12:34:47.196Z,2.95
2023-05-22T12:37:25.982Z,3.17
2023-05-22T12:40:00.197Z,2.92
2023-05-22T12:42:27.798Z,2.95
2023-05-22T12:44:56.378Z,3.50
2023-05-22T12:47:24.226Z,2.90
2023-05-22T12:49:51.716Z,3.25
2023-05-22T12:52:19.270Z,3.10
2023-05-22T12:54:46.591Z,2.97
2023-05-22T12:57:13.869Z,3.13
2023-05-22T12:59:41.330Z,3.50
2023-05-22T13:02:08.664Z,2.90
2023-05-22T13:04:36.321Z,3.17
2023-05-22T13:07:04.036Z,3.20
2023-05-22T13:09:31.372Z,3.13
2023-05-22T13:11:58.566Z,3.15
2023-05-22T13:14:25.727Z,2.90
2023-05-22T13:16:52.922Z,3.30
2023-05-22T13:19:20.152Z,3.00
2023-05-22T13:21:47.470Z,2.95
2023-05-22T13:24:14.628Z,2.85
2023-05-22T13:26:41.819Z,3.20
2023-05-22T13:29:09.043Z,3.00
2023-05-22T13:31:37.936Z,3.03
2023-05-22T13:34:05.852Z,3.15
2023-05-22T13:36:33.147Z,3.25
2023-05-22T13:39:00.314Z,3.05
2023-05-22T13:41:27.511Z,3.58
2023-05-22T13:43:55.148Z,2.75
2023-05-22T13:46:22.590Z,3.40
2023-05-22T13:48:49.889Z,2.63
2023-05-22T13:51:17.208Z,2.80
2023-05-22T13:53:44.394Z,3.25
2023-05-22T13:56:11.522Z,3.20
2023-05-22T13:58:38.739Z,3.10
2023-05-22T14:01:06.056Z,3.00
2023-05-22T14:03:33.358Z,2.97
2023-05-22T14:06:00.530Z,3.00
2023-05-22T14:08:27.747Z,3.40
2023-05-22T14:10:54.945Z,3.28
2023-05-22T14:13:22.229Z,3.10
2023-05-22T14:15:49.590Z,3.40
2023-05-22T14:18:17.064Z,2.42
2023-05-22T14:20:44.695Z,2.85
2023-05-22T14:23:12.654Z,3.00
2023-05-22T14:25:43.358Z,3.00
2023-05-22T14:28:14.297Z,3.35
2023-05-22T14:30:41.683Z,2.78
2023-05-22T14:33:09.121Z,2.47
2023-05-22T14:35:36.399Z,3.35
2023-05-22T14:38:03.547Z,2.97
2023-05-22T14:40:30.930Z,2.67
2023-05-22T14:42:58.274Z,3.20
2023-05-22T14:45:25.468Z,3.10
2023-05-22T14:47:52.841Z,2.78
2023-05-22T14:50:20.931Z,2.88
2023-05-22T14:52:49.103Z,2.97
2023-05-22T14:55:16.818Z,3.13
2023-05-22T14:57:44.045Z,2.97
2023-05-22T15:00:12.445Z,3.30
2023-05-22T15:02:40.199Z,3.33
2023-05-22T15:05:07.794Z,3.40
2023-05-22T15:07:43.732Z,2.78
2023-05-22T15:10:13.014Z,3.05
2023-05-22T15:12:40.516Z,3.35
2023-05-22T15:15:08.169Z,3.10
2023-05-22T15:17:35.549Z,3.20
2023-05-22T15:20:04.444Z,3.00
2023-05-22T15:22:31.709Z,3.05
2023-05-22T15:25:05.648Z,3.05
2023-05-22T15:27:34.535Z,3.67
2023-05-22T15:30:02.301Z,2.88
2023-05-22T15:32:30.790Z,2.58
2023-05-22T15:34:58.109Z,2.95
2023-05-22T15:37:25.435Z,3.30
2023-05-22T15:39:52.675Z,3.03
2023-05-22T15:42:19.896Z,3.35
2023-05-22T15:44:47.470Z,2.92
2023-05-22T15:47:15.015Z,3.13
2023-05-22T15:49:42.146Z,2.90
2023-05-22T15:52:09.320Z,2.78
2023-05-22T15:54:36.484Z,2.85
2023-05-22T15:57:03.697Z,3.38
2023-05-22T15:59:32.618Z,3.30
2023-05-22T16:01:59.769Z,3.15
2023-05-22T16:04:26.923Z,3.30
2023-05-22T16:06:54.133Z,3.03
2023-05-22T16:09:21.401Z,3.17
2023-05-22T16:11:50.070Z,2.88
2023-05-22T16:14:17.354Z,3.10
2023-05-22T16:16:44.543Z,2.80
2023-05-22T16:19:11.879Z,3.45
2023-05-22T16:21:39.337Z,3.50
2023-05-22T16:24:07.126Z,3.15
2023-05-22T16:26:36.356Z,2.85
2023-05-22T16:29:03.647Z,2.92
2023-05-22T16:31:35.358Z,3.22
2023-05-22T16:34:06.178Z,3.53
2023-05-22T16:36:33.343Z,3.35
2023-05-22T16:39:00.572Z,4.32
2023-05-22T16:41:28.172Z,3.70
2023-05-22T16:43:55.427Z,3.88
2023-05-22T16:46:22.623Z,3.40
2023-05-22T16:48:50.453Z,3.50
2023-05-22T16:51:17.646Z,3.50
2023-05-22T16:53:46.510Z,4.13
2023-05-22T16:56:14.588Z,3.40
2023-05-22T16:58:41.742Z,4.40
2023-05-22T17:01:09.200Z,3.95
2023-05-22T17:03:36.539Z,3.83
2023-05-22T17:06:04.171Z,3.78
2023-05-22T17:08:32.150Z,3.42
2023-05-22T17:10:59.380Z,3.75
2023-05-22T17:13:26.644Z,3.65
2023-05-22T17:15:53.998Z,3.83
2023-05-22T17:18:21.375Z,3.75
2023-05-22T17:20:49.436Z,3.72
2023-05-22T17:23:20.611Z,3.67
2023-05-22T17:25:48.140Z,4.03
2023-05-22T17:28:15.501Z,3.85
2023-05-22T17:30:44.259Z,4.28
2023-05-22T17:35:39.316Z,3.95
2023-05-22T17:38:08.442Z,4.80
2023-05-22T17:40:43.735Z,4.20
2023-05-22T17:43:12.438Z,4.25
2023-05-22T17:45:39.653Z,4.22
2023-05-22T17:48:07.992Z,4.07
2023-05-22T17:50:35.480Z,3.97
2023-05-22T17:53:03.320Z,4.30
2023-05-22T17:55:30.620Z,3.90
2023-05-22T17:57:58.067Z,4.18
2023-05-22T18:00:25.332Z,3.60
2023-05-22T18:02:52.577Z,3.88
2023-05-22T18:05:19.803Z,4.20
2023-05-22T18:07:46.963Z,3.45
2023-05-22T18:10:14.112Z,3.55
2023-05-22T18:12:41.250Z,3.72
2023-05-22T18:15:10.921Z,4.38
2023-05-22T18:17:38.389Z,3.63
2023-05-22T18:20:08.163Z,3.90
2023-05-22T18:22:39.387Z,3.92
2023-05-22T18:25:07.190Z,4.03
2023-05-22T18:27:34.535Z,3.60
2023-05-22T18:30:02.044Z,3.70
2023-05-22T18:32:29.257Z,2.97
2023-05-22T18:34:58.487Z,3.72
2023-05-22T18:37:25.988Z,3.33
2023-05-22T18:39:53.403Z,3.45
2023-05-22T18:42:20.779Z,4.00
2023-05-22T18:44:49.210Z,3.08
2023-05-22T18:47:16.548Z,3.40
2023-05-22T18:49:43.695Z,3.10
2023-05-22T18:52:10.948Z,3.60
2023-05-22T18:54:38.070Z,3.25
2023-05-22T18:57:05.486Z,3.63
2023-05-22T18:59:32.653Z,3.30
2023-05-22T19:01:59.850Z,3.38
2023-05-22T19:04:27.063Z,3.08
2023-05-22T19:06:54.372Z,3.28
2023-05-22T19:09:22.153Z,2.88
2023-05-22T19:11:49.520Z,3.13
2023-05-22T19:14:16.758Z,3.00
2023-05-22T19:16:44.241Z,3.13
2023-05-22T19:19:11.831Z,3.20
2023-05-22T19:21:39.251Z,2.70
2023-05-22T19:24:06.861Z,3.42
2023-05-22T19:26:34.055Z,2.80
2023-05-22T19:29:01.217Z,2.97
2023-05-22T19:31:29.177Z,3.20
2023-05-22T19:33:56.583Z,3.08
2023-05-22T19:36:23.860Z,3.13
2023-05-22T19:38:53.283Z,3.03
2023-05-22T19:41:21.632Z,2.95
2023-05-22T19:43:48.810Z,2.90
2023-05-22T19:46:15.999Z,2.88
2023-05-22T19:48:43.187Z,3.13
2023-05-22T19:51:10.356Z,2.92
2023-05-22T19:53:37.616Z,2.60
2023-05-22T19:56:04.805Z,2.72
2023-05-22T19:58:32.037Z,2.83
2023-05-22T20:00:59.217Z,2.85
2023-05-22T20:03:26.912Z,2.65
2023-05-22T20:05:54.246Z,3.10
2023-05-22T20:08:22.305Z,2.53
2023-05-22T20:10:49.764Z,2.72
2023-05-22T20:13:17.049Z,2.85
2023-05-22T20:15:47.564Z,2.78
2023-05-22T20:18:14.911Z,2.70
2023-05-22T20:20:42.092Z,2.58
2023-05-22T20:23:09.350Z,2.83
2023-05-22T20:25:37.689Z,2.30
2023-05-22T20:28:05.127Z,3.80
2023-05-22T20:30:32.588Z,2.65
2023-05-22T20:32:59.782Z,2.60
2023-05-22T20:35:27.070Z,2.63
2023-05-22T20:37:54.363Z,2.60
2023-05-22T20:40:21.773Z,2.92
2023-05-22T20:42:50.243Z,2.67
2023-05-22T20:45:17.579Z,3.50
2023-05-22T20:47:44.841Z,2.95
2023-05-22T20:50:12.510Z,2.85
2023-05-22T20:52:39.675Z,3.38
2023-05-22T20:55:07.338Z,2.40
2023-05-22T20:57:34.874Z,2.60
2023-05-22T21:00:02.033Z,2.70
2023-05-22T21:02:29.209Z,2.97
2023-05-22T21:04:56.546Z,2.83
2023-05-22T21:07:23.709Z,2.60
2023-05-22T21:09:50.950Z,3.22
2023-05-22T21:12:18.129Z,3.15
2023-05-22T21:14:47.033Z,2.75
2023-05-22T21:17:14.188Z,3.00
2023-05-22T21:19:41.550Z,2.80
2023-05-22T21:22:09.713Z,2.90
2023-05-22T21:24:36.847Z,2.83
2023-05-22T21:27:05.097Z,2.95
2023-05-22T21:29:32.230Z,2.47
2023-05-22T21:31:59.563Z,2.90
2023-05-22T21:34:26.827Z,2.80
2023-05-22T21:36:53.952Z,3.40
2023-05-22T21:39:21.093Z,3.15
2023-05-22T21:41:49.962Z,4.32
2023-05-22T21:44:18.509Z,2.72
2023-05-22T21:46:45.699Z,3.10
2023-05-22T21:49:12.921Z,3.08
2023-05-22T21:51:40.047Z,3.08
2023-05-22T21:54:07.355Z,2.95
2023-05-22T21:56:34.526Z,2.53
2023-05-22T21:59:01.734Z,2.55
2023-05-22T22:01:29.007Z,2.65
2023-05-22T22:03:56.158Z,2.65
2023-05-22T22:06:23.985Z,2.55
2023-05-22T22:08:53.124Z,2.92
2023-05-22T22:11:20.399Z,2.58
2023-05-22T22:13:47.558Z,2.90
2023-05-22T22:16:15.319Z,2.92
2023-05-22T22:18:43.851Z,2.72
2023-05-22T22:21:12.002Z,2.40
2023-05-22T22:23:39.169Z,2.80
2023-05-22T22:26:06.621Z,2.55
2023-05-22T22:28:34.169Z,2.40
2023-05-22T22:31:01.482Z,3.00
2023-05-22T22:33:30.273Z,3.00
2023-05-22T22:38:24.677Z,2.72
2023-05-22T22:40:51.842Z,2.88
2023-05-22T22:43:19.487Z,2.75
2023-05-22T22:45:46.667Z,2.63
2023-05-22T22:48:13.847Z,2.22
2023-05-22T22:50:41.515Z,2.63
2023-05-22T22:53:08.787Z,2.92
2023-05-22T22:55:36.024Z,2.70
2023-05-22T22:58:03.368Z,2.83
2023-05-22T23:00:30.629Z,2.63
2023-05-22T23:02:57.862Z,2.80
2023-05-22T23:05:25.118Z,2.75
2023-05-22T23:07:52.341Z,2.83
2023-05-22T23:10:19.627Z,2.95
2023-05-22T23:12:48.861Z,2.80
2023-05-22T23:15:16.188Z,2.85
2023-05-22T23:17:43.526Z,2.80
2023-05-22T23:20:11.273Z,2.85
2023-05-22T23:22:38.507Z,2.70
2023-05-22T23:25:07.224Z,2.90
2023-05-22T23:27:34.418Z,2.95
2023-05-22T23:30:01.808Z,2.58
2023-05-22T23:32:29.225Z,2.70
2023-05-22T23:34:56.721Z,2.55
2023-05-22T23:37:24.026Z,2.78
2023-05-22T23:39:51.141Z,2.80
2023-05-22T23:42:18.735Z,2.92
2023-05-22T23:44:45.901Z,2.50
2023-05-22T23:47:13.046Z,2.95
2023-05-22T23:49:40.181Z,2.80
2023-05-22T23:52:08.004Z,2.78
2023-05-22T23:54:35.192Z,3.20
2023-05-22T23:57:02.345Z,2.60
2023-05-22T23:59:29.645Z,2.40
